Time;durP1;ratioP1;P1;durP2;ratioP2;P2;SDS_P1;SDS_P2;PMS_P1;PMS_P2;Temp;Humidity;BMP_temperature;BMP_pressure;BME280_temperature;BME280_humidity;BME280_pressure;Samples;Min_cycle;Max_cycle;Signal;HPM_P1;HPM_P2
2023/06/19 00:00:56;;;;;;;5.10;4.68;;;;;;;21.70;52.84;100370.19;4984035;28;20680;-71
2023/06/19 00:03:24;;;;;;;5.18;4.78;;;;;;;21.64;53.19;100367.34;4986144;28;20231;-70
2023/06/19 00:05:50;;;;;;;5.57;5.07;;;;;;;21.59;53.26;100361.59;4987653;28;20211;-70
2023/06/19 00:08:17;;;;;;;5.45;4.95;;;;;;;21.53;53.51;100362.28;4986321;28;20214;-71
2023/06/19 00:10:43;;;;;;;5.50;4.97;;;;;;;21.47;53.73;100356.56;4981531;28;20219;-70
2023/06/19 00:13:10;;;;;;;6.00;5.40;;;;;;;21.41;53.93;100362.66;4976556;28;20231;-70
2023/06/19 00:15:36;;;;;;;5.53;4.90;;;;;;;21.37;53.93;100355.06;4982559;28;20206;-70
2023/06/19 00:18:03;;;;;;;5.07;4.57;;;;;;;21.32;54.21;100358.28;4985870;28;20211;-70
2023/06/19 00:20:30;;;;;;;5.30;4.90;;;;;;;21.28;54.32;100362.38;4981034;28;20200;-70
2023/06/19 00:22:57;;;;;;;5.57;5.10;;;;;;;21.24;54.38;100361.03;4978801;28;20657;-70
2023/06/19 00:25:23;;;;;;;5.20;4.80;;;;;;;21.22;54.38;100345.97;4978866;28;20811;-72
2023/06/19 00:27:50;;;;;;;5.18;4.68;;;;;;;21.19;54.50;100348.97;4979190;28;20219;-70
2023/06/19 00:30:17;;;;;;;5.30;4.90;;;;;;;21.17;54.54;100349.16;4987708;28;20255;-70
2023/06/19 00:32:47;;;;;;;5.00;4.60;;;;;;;21.16;54.61;100344.75;4988141;28;20246;-70
2023/06/19 00:35:14;;;;;;;5.63;4.28;;;;;;;21.14;54.86;100342.22;4982821;28;20216;-72
2023/06/19 00:37:44;;;;;;;5.95;5.38;;;;;;;21.12;54.76;100333.44;4984875;28;20234;-70
2023/06/19 00:40:15;;;;;;;5.60;5.10;;;;;;;21.11;55.11;100333.59;4988447;28;20232;-70
2023/06/19 00:42:41;;;;;;;6.07;5.47;;;;;;;21.09;56.26;100330.22;4988534;28;20242;-70
2023/06/19 00:45:08;;;;;;;6.38;5.88;;;;;;;21.07;57.36;100334.97;4986536;28;20236;-71
2023/06/19 00:47:35;;;;;;;6.95;6.18;;;;;;;21.03;58.12;100333.59;4986090;28;20272;-70
2023/06/19 00:50:02;;;;;;;6.20;5.70;;;;;;;20.98;58.48;100334.13;4988131;28;20232;-71
2023/06/19 00:52:28;;;;;;;6.60;6.00;;;;;;;20.94;58.93;100331.94;4987413;28;20250;-70
2023/06/19 00:54:56;;;;;;;6.50;5.90;;;;;;;20.88;58.94;100328.06;4987978;28;20210;-70
2023/06/19 00:57:23;;;;;;;5.50;5.00;;;;;;;20.85;59.41;100325.69;4978250;28;20273;-70
2023/06/19 00:59:51;;;;;;;6.93;5.60;;;;;;;20.80;59.98;100317.22;4986875;28;20202;-70
2023/06/19 01:02:18;;;;;;;6.30;5.80;;;;;;;20.78;60.41;100313.88;4981532;28;20669;-71
2023/06/19 01:04:44;;;;;;;6.67;5.97;;;;;;;20.74;61.01;100310.66;4981893;28;20252;-71
2023/06/19 01:07:15;;;;;;;6.22;5.63;;;;;;;20.73;61.51;100310.81;4984858;28;20217;-71
2023/06/19 01:09:47;;;;;;;6.20;5.70;;;;;;;20.71;61.53;100300.16;4984594;28;20261;-70
2023/06/19 01:12:19;;;;;;;6.20;5.63;;;;;;;20.72;61.81;100303.72;4987285;28;20234;-70
2023/06/19 01:14:59;;;;;;;6.17;5.67;;;;;;;20.72;61.85;100299.16;4981170;28;20209;-70
2023/06/19 01:17:27;;;;;;;5.63;5.13;;;;;;;20.74;61.45;100305.25;4985532;28;20221;-68
2023/06/19 01:19:54;;;;;;;5.90;5.40;;;;;;;20.75;60.59;100300.69;4981629;28;20232;-71
2023/06/19 01:22:26;;;;;;;5.80;5.30;;;;;;;20.73;60.46;100297.28;4985491;28;20754;-70
2023/06/19 01:24:53;;;;;;;5.27;4.77;;;;;;;20.73;59.71;100290.03;4981759;28;20224;-70
2023/06/19 01:27:20;;;;;;;5.27;4.70;;;;;;;20.73;58.96;100289.19;4982828;28;20213;-70
2023/06/19 01:29:46;;;;;;;5.83;5.20;;;;;;;20.73;58.48;100300.00;4987914;28;20232;-70
2023/06/19 01:32:19;;;;;;;5.43;4.97;;;;;;;20.73;58.42;100300.84;4982618;28;20270;-70
2023/06/19 01:34:47;;;;;;;6.23;5.07;;;;;;;20.74;57.84;100294.41;4980432;28;20212;-70
2023/06/19 01:37:13;;;;;;;5.50;4.80;;;;;;;20.77;57.82;100299.50;4985346;28;20214;-70
2023/06/19 01:39:42;;;;;;;5.80;5.30;;;;;;;20.79;58.10;100285.75;4986312;28;20212;-69
2023/06/19 01:42:11;;;;;;;6.53;5.10;;;;;;;20.81;58.31;100291.84;4988056;28;20606;-70
2023/06/19 01:44:38;;;;;;;6.13;5.50;;;;;;;20.82;58.55;100292.69;4982585;28;20210;-70
2023/06/19 01:47:09;;;;;;;5.70;5.20;;;;;;;20.82;58.80;100293.53;4980482;28;21319;-70
2023/06/19 01:49:36;;;;;;;5.70;5.20;;;;;;;20.82;59.08;100292.69;4984876;28;20259;-70
2023/06/19 01:52:03;;;;;;;5.57;5.17;;;;;;;20.83;59.18;100294.38;4987363;28;20233;-70
2023/06/19 01:54:29;;;;;;;6.63;6.03;;;;;;;20.82;59.36;100298.97;4982419;28;20210;-70
2023/06/19 01:56:58;;;;;;;5.50;4.97;;;;;;;20.80;59.14;100299.13;4984072;28;20210;-70
2023/06/19 01:59:24;;;;;;;5.90;5.40;;;;;;;20.79;58.99;100308.25;4984871;28;20206;-70
2023/06/19 02:01:51;;;;;;;6.13;5.53;;;;;;;20.78;58.75;100306.56;4986520;28;20238;-69
2023/06/19 02:04:17;;;;;;;6.13;5.53;;;;;;;20.75;58.54;100303.38;4981508;28;20246;-70
2023/06/19 02:06:44;;;;;;;6.47;5.88;;;;;;;20.72;58.50;100301.00;4988100;28;20215;-70
2023/06/19 02:09:10;;;;;;;5.87;5.37;;;;;;;20.71;58.48;100302.03;4986654;28;20233;-69
2023/06/19 02:11:37;;;;;;;5.27;4.87;;;;;;;20.69;58.81;100306.75;4986924;28;20238;-70
2023/06/19 02:14:05;;;;;;;5.70;5.20;;;;;;;20.66;59.63;100302.53;4986179;28;20214;-70
2023/06/19 02:16:31;;;;;;;6.70;6.00;;;;;;;20.63;60.14;100300.16;4987263;28;20226;-70
2023/06/19 02:18:57;;;;;;;6.30;5.70;;;;;;;20.56;61.30;100310.00;4984315;28;20239;-69
2023/06/19 02:21:24;;;;;;;7.07;6.47;;;;;;;20.50;62.30;100307.94;4987462;28;20216;-70
2023/06/19 02:23:50;;;;;;;6.17;5.67;;;;;;;20.44;63.02;100300.50;4984013;28;20227;-70
2023/06/19 02:26:17;;;;;;;6.70;5.97;;;;;;;20.35;63.27;100294.22;4983978;28;20248;-70
2023/06/19 02:28:43;;;;;;;6.70;6.10;;;;;;;20.27;63.69;100294.22;4981026;28;20244;-70
2023/06/19 02:31:11;;;;;;;7.13;6.53;;;;;;;20.21;64.27;100296.75;4981375;28;20711;-70
2023/06/19 02:33:37;;;;;;;6.63;6.03;;;;;;;20.14;64.26;100287.63;4982051;28;20901;-70
2023/06/19 02:36:05;;;;;;;6.17;5.63;;;;;;;20.07;64.12;100284.72;4982942;28;20712;-69
2023/06/19 02:38:31;;;;;;;6.43;5.60;;;;;;;20.01;64.22;100278.16;4990615;28;20214;-70
2023/06/19 02:41:00;;;;;;;6.80;6.20;;;;;;;19.96;64.36;100274.25;4988352;28;20225;-71
2023/06/19 02:43:26;;;;;;;5.80;5.30;;;;;;;19.90;64.35;100274.91;4983119;28;20238;-71
2023/06/19 02:45:53;;;;;;;5.97;5.47;;;;;;;19.84;65.01;100268.31;4979841;28;20214;-70
2023/06/19 02:48:23;;;;;;;6.73;5.07;;;;;;;19.80;64.97;100269.66;4990502;28;20212;-70
2023/06/19 02:50:49;;;;;;;6.93;6.23;;;;;;;19.76;65.31;100263.75;4983445;28;20285;-69
2023/06/19 02:53:16;;;;;;;6.37;5.77;;;;;;;19.74;65.79;100260.34;4987168;28;20227;-70
2023/06/19 02:55:43;;;;;;;5.73;5.20;;;;;;;19.76;65.63;100262.91;4990089;28;20237;-70
2023/06/19 02:58:09;;;;;;;6.27;5.67;;;;;;;19.76;65.33;100262.91;4989818;28;20208;-70
2023/06/19 03:00:36;;;;;;;6.30;5.30;;;;;;;19.77;65.03;100261.88;4989044;28;20203;-70
2023/06/19 03:03:02;;;;;;;6.03;5.43;;;;;;;19.79;64.37;100257.16;4990354;28;20231;-70
2023/06/19 03:05:30;;;;;;;6.00;5.50;;;;;;;19.81;63.95;100255.16;4990726;28;20238;-70
2023/06/19 03:07:57;;;;;;;5.90;5.40;;;;;;;19.84;63.59;100260.22;4989624;28;20584;-71
2023/06/19 03:10:23;;;;;;;6.90;5.37;;;;;;;19.86;63.40;100252.78;4983575;28;20238;-70
2023/06/19 03:12:49;;;;;;;5.27;4.87;;;;;;;19.89;63.47;100252.44;4980767;28;20256;-70
2023/06/19 03:15:16;;;;;;;5.77;5.27;;;;;;;19.94;63.27;100257.34;4985023;28;20213;-70
2023/06/19 03:17:43;;;;;;;6.13;5.53;;;;;;;19.96;63.68;100258.88;4984558;28;20214;-70
2023/06/19 03:20:11;;;;;;;6.10;5.40;;;;;;;19.99;62.82;100269.38;4978641;28;20207;-70
2023/06/19 03:22:40;;;;;;;5.90;5.30;;;;;;;20.02;62.66;100265.47;4983927;28;20231;-70
2023/06/19 03:25:07;;;;;;;5.60;5.10;;;;;;;20.04;62.92;100268.88;4990630;28;20214;-70
2023/06/19 03:27:34;;;;;;;5.90;5.40;;;;;;;20.05;63.01;100271.41;4990347;28;20272;-70
2023/06/19 03:30:00;;;;;;;5.87;5.30;;;;;;;20.08;62.87;100267.50;4989181;28;20210;-70
2023/06/19 03:32:27;;;;;;;6.03;5.53;;;;;;;20.10;62.69;100274.44;4979982;28;20239;-69
2023/06/19 03:34:53;;;;;;;6.53;5.10;;;;;;;20.13;62.11;100278.66;4987813;28;20218;-70
2023/06/19 03:37:19;;;;;;;5.93;5.33;;;;;;;20.15;62.00;100273.09;4986408;28;20221;-70
2023/06/19 03:39:47;;;;;;;7.53;5.87;;;;;;;20.17;62.73;100262.97;4979086;28;20228;-70
2023/06/19 03:42:14;;;;;;;7.30;6.20;;;;;;;20.19;64.74;100274.44;4984570;28;20236;-70
2023/06/19 03:44:40;;;;;;;7.97;6.30;;;;;;;20.19;66.23;100274.44;4984123;28;20211;-70
2023/06/19 03:47:07;;;;;;;7.70;6.30;;;;;;;20.18;67.27;100270.06;4983100;28;20205;-70
2023/06/19 03:49:33;;;;;;;6.90;6.20;;;;;;;20.16;67.67;100269.38;4987225;28;20702;-70
2023/06/19 03:52:00;;;;;;;8.23;5.73;;;;;;;20.13;67.71;100277.81;4984248;28;20271;-71
2023/06/19 03:54:27;;;;;;;8.60;5.87;;;;;;;20.07;67.66;100277.47;4984932;28;20205;-70
2023/06/19 03:56:54;;;;;;;8.13;6.03;;;;;;;20.06;67.71;100277.66;4988328;28;20236;-70
2023/06/19 03:59:21;;;;;;;6.50;5.90;;;;;;;20.03;67.54;100278.84;4989704;28;20209;-70
2023/06/19 04:01:47;;;;;;;6.93;5.83;;;;;;;20.02;67.61;100274.44;4984467;28;20213;-70
2023/06/19 04:04:14;;;;;;;6.47;5.87;;;;;;;20.01;67.09;100278.16;4986005;28;20211;-70
2023/06/19 04:06:40;;;;;;;6.93;5.80;;;;;;;20.00;66.88;100286.44;4988548;28;20224;-70
2023/06/19 04:09:07;;;;;;;6.73;5.70;;;;;;;19.99;66.55;100285.59;4990373;28;20666;-69
2023/06/19 04:11:33;;;;;;;6.73;5.97;;;;;;;19.99;66.27;100287.44;4980820;28;20910;-68
2023/06/19 04:14:01;;;;;;;5.90;5.40;;;;;;;19.99;66.09;100284.72;4982587;28;20728;-68
2023/06/19 04:16:27;;;;;;;7.97;5.73;;;;;;;20.01;66.26;100288.13;4985425;28;20610;-69
2023/06/19 04:18:54;;;;;;;6.30;4.90;;;;;;;20.01;65.84;100290.81;4983922;28;20208;-68
2023/06/19 04:21:20;;;;;;;6.47;5.60;;;;;;;20.02;65.54;100287.09;4980916;28;20221;-69
2023/06/19 04:23:46;;;;;;;5.93;5.37;;;;;;;20.02;65.27;100285.25;4976807;28;20237;-68
2023/06/19 04:26:13;;;;;;;5.73;5.23;;;;;;;20.04;65.14;100288.63;4978236;28;20217;-68
2023/06/19 04:28:41;;;;;;;7.33;5.90;;;;;;;20.03;65.10;100286.94;4987403;28;20209;-68
2023/06/19 04:31:09;;;;;;;6.07;5.57;;;;;;;20.03;65.09;100292.34;4980035;28;20775;-68
2023/06/19 04:33:35;;;;;;;5.73;5.23;;;;;;;20.03;65.01;100295.06;4985101;28;20711;-70
2023/06/19 04:36:02;;;;;;;6.27;5.67;;;;;;;20.07;65.32;100299.09;4982674;28;20206;-70
2023/06/19 04:38:28;;;;;;;6.13;5.53;;;;;;;20.08;65.55;100308.91;4986577;28;20308;-70
2023/06/19 04:40:57;;;;;;;6.37;5.30;;;;;;;20.11;65.45;100299.59;4983559;28;20728;-70
2023/06/19 04:43:24;;;;;;;6.00;5.40;;;;;;;20.13;65.55;100307.56;4981826;28;20233;-70
2023/06/19 04:45:51;;;;;;;6.20;5.60;;;;;;;20.14;65.19;100306.53;4978439;28;20238;-70
2023/06/19 04:48:18;;;;;;;6.53;5.37;;;;;;;20.14;65.10;100315.50;4983002;28;20208;-69
2023/06/19 04:50:45;;;;;;;6.93;5.17;;;;;;;20.15;65.04;100311.78;4981367;28;20247;-70
2023/06/19 04:53:11;;;;;;;6.93;5.50;;;;;;;20.15;64.74;100302.84;4982596;28;20232;-70
2023/06/19 04:55:38;;;;;;;6.27;5.67;;;;;;;20.13;64.68;100307.56;4983002;28;20210;-70
2023/06/19 04:58:04;;;;;;;6.87;5.77;;;;;;;20.14;65.55;100298.44;4979488;28;20235;-69
2023/06/19 05:00:31;;;;;;;7.00;6.30;;;;;;;20.14;66.68;100298.44;4983624;28;20209;-70
2023/06/19 05:03:00;;;;;;;8.03;6.77;;;;;;;20.14;68.00;100295.72;4978428;28;20227;-70
2023/06/19 05:05:28;;;;;;;7.63;6.87;;;;;;;20.14;69.24;100301.13;4983966;28;20216;-71
2023/06/19 05:07:54;;;;;;;6.73;6.23;;;;;;;20.11;70.02;100299.59;4985856;28;20222;-69
2023/06/19 05:10:21;;;;;;;8.10;6.43;;;;;;;20.06;70.15;100300.09;4978214;28;20205;-69
2023/06/19 05:12:47;;;;;;;9.87;6.50;;;;;;;20.01;70.28;100294.38;4981480;28;20237;-70
2023/06/19 05:15:14;;;;;;;8.53;6.77;;;;;;;19.99;70.65;100299.09;4977236;28;20218;-71
2023/06/19 05:17:40;;;;;;;7.40;6.70;;;;;;;19.98;70.44;100305.50;4981206;28;20446;-71
2023/06/19 05:20:08;;;;;;;8.30;6.30;;;;;;;19.98;70.59;100310.91;4985336;28;20220;-70
2023/06/19 05:22:37;;;;;;;6.53;5.87;;;;;;;19.97;70.32;100308.38;4979963;28;20249;-71
2023/06/19 05:25:03;;;;;;;8.30;6.50;;;;;;;19.95;69.55;100305.84;4985670;28;20233;-70
2023/06/19 05:27:30;;;;;;;6.50;5.43;;;;;;;19.95;69.02;100323.91;4978116;28;20247;-67
2023/06/19 05:29:56;;;;;;;7.93;6.43;;;;;;;19.96;68.66;100325.59;4982287;28;20207;-72
2023/06/19 05:32:23;;;;;;;6.67;6.07;;;;;;;19.97;68.17;100325.44;4982620;28;20231;-73
2023/06/19 05:34:49;;;;;;;7.10;6.07;;;;;;;20.00;68.06;100326.97;4985555;28;20480;-73
2023/06/19 05:37:17;;;;;;;6.80;6.20;;;;;;;20.04;67.79;100334.59;4981942;28;20305;-73
2023/06/19 05:39:44;;;;;;;7.93;6.10;;;;;;;20.07;67.37;100345.06;4986188;28;20235;-73
2023/06/19 05:42:11;;;;;;;5.73;5.23;;;;;;;20.11;67.25;100342.88;4980880;28;20224;-73
2023/06/19 05:44:37;;;;;;;6.97;6.20;;;;;;;20.15;66.60;100332.56;4987348;28;20215;-73
2023/06/19 05:47:04;;;;;;;6.90;6.30;;;;;;;20.18;66.36;100326.84;4985594;28;20210;-73
2023/06/19 05:49:31;;;;;;;6.77;6.17;;;;;;;20.22;66.36;100336.31;4984680;28;20218;-73
2023/06/19 05:51:58;;;;;;;6.27;5.67;;;;;;;20.25;66.33;100341.38;4986300;28;20250;-73
2023/06/19 05:54:25;;;;;;;6.77;6.00;;;;;;;20.31;67.23;100338.00;4987421;28;20683;-73
2023/06/19 05:56:53;;;;;;;8.10;6.70;;;;;;;20.36;68.68;100333.81;4984547;28;20225;-73
2023/06/19 05:59:20;;;;;;;7.80;7.10;;;;;;;20.43;70.36;100342.09;4986949;28;20225;-74
2023/06/19 06:01:46;;;;;;;8.50;7.20;;;;;;;20.46;70.48;100344.47;4985802;28;20673;-73
2023/06/19 06:04:13;;;;;;;8.73;6.50;;;;;;;20.46;70.06;100344.47;4984251;28;20515;-73
2023/06/19 06:06:40;;;;;;;6.97;6.27;;;;;;;20.45;69.54;100340.06;4985807;28;20266;-73
2023/06/19 06:09:09;;;;;;;6.97;6.03;;;;;;;20.43;68.98;100337.53;4985028;28;20798;-73
2023/06/19 06:11:35;;;;;;;6.93;6.33;;;;;;;20.45;68.59;100340.06;4979930;28;20289;-73
2023/06/19 06:14:03;;;;;;;6.60;6.00;;;;;;;20.47;68.29;100339.91;4985652;28;20521;-73
2023/06/19 06:16:30;;;;;;;7.23;6.47;;;;;;;20.49;68.26;100341.44;4986129;28;20206;-73
2023/06/19 06:18:56;;;;;;;8.47;6.77;;;;;;;20.55;68.42;100345.34;4981255;28;20230;-72
2023/06/19 06:21:23;;;;;;;8.03;7.23;;;;;;;20.60;68.55;100342.97;4985204;28;20197;-73
2023/06/19 06:23:49;;;;;;;8.50;7.70;;;;;;;20.65;69.09;100341.44;4985731;28;20581;-73
2023/06/19 06:26:16;;;;;;;7.63;6.93;;;;;;;20.72;69.83;100347.03;4985325;28;20731;-74
2023/06/19 06:28:42;;;;;;;8.33;7.53;;;;;;;20.78;70.37;100352.56;4982076;28;20217;-73
2023/06/19 06:31:10;;;;;;;8.13;7.33;;;;;;;20.86;71.21;100357.16;4987122;28;20607;-73
2023/06/19 06:33:36;;;;;;;7.97;7.20;;;;;;;20.90;71.41;100355.81;4979178;28;20244;-73
2023/06/19 06:36:03;;;;;;;8.93;8.07;;;;;;;20.95;71.87;100360.72;4980991;28;20289;-73
2023/06/19 06:38:30;;;;;;;8.00;7.20;;;;;;;20.96;72.32;100355.09;4985783;28;20606;-73
2023/06/19 06:40:56;;;;;;;7.97;7.17;;;;;;;21.01;72.64;100362.72;4982714;28;20682;-73
2023/06/19 06:43:23;;;;;;;10.20;8.10;;;;;;;21.05;72.89;100370.34;4977007;28;20230;-73
2023/06/19 06:45:49;;;;;;;8.75;7.85;;;;;;;21.09;72.98;100371.69;4983737;28;20563;-73
2023/06/19 06:48:17;;;;;;;8.73;7.90;;;;;;;21.13;73.23;100361.38;4982545;28;20205;-73
2023/06/19 06:50:44;;;;;;;8.63;7.57;;;;;;;21.18;73.90;100368.94;4986468;28;20218;-73
2023/06/19 06:53:10;;;;;;;9.03;8.10;;;;;;;21.24;74.50;100361.03;4984669;28;20310;-72
2023/06/19 06:55:37;;;;;;;8.43;7.53;;;;;;;21.31;74.46;100369.31;4978712;28;20445;-74
2023/06/19 06:58:03;;;;;;;9.57;8.17;;;;;;;21.34;74.22;100366.22;4985437;28;20215;-73
2023/06/19 07:00:30;;;;;;;8.47;7.63;;;;;;;21.41;73.82;100383.50;4986100;28;20482;-74
2023/06/19 07:02:56;;;;;;;8.43;7.50;;;;;;;21.45;73.40;100380.28;4980375;28;20225;-73
2023/06/19 07:05:24;;;;;;;8.50;7.20;;;;;;;21.53;72.39;100389.38;4984348;28;20744;-73
2023/06/19 07:07:50;;;;;;;8.57;6.60;;;;;;;21.60;69.71;100390.38;4985671;28;20208;-73
2023/06/19 07:10:17;;;;;;;10.85;6.13;;;;;;;21.62;67.45;100397.31;4984949;28;20360;-73
2023/06/19 07:12:48;;;;;;;8.98;6.43;;;;;;;21.67;64.43;100386.81;4982584;28;20758;-73
2023/06/19 07:15:15;;;;;;;7.03;6.18;;;;;;;21.72;61.89;100395.25;4982373;28;20199;-73
2023/06/19 07:17:41;;;;;;;7.10;5.63;;;;;;;21.83;60.46;100394.03;4985602;28;20493;-73
2023/06/19 07:20:09;;;;;;;6.65;5.90;;;;;;;21.95;59.47;100395.31;4986968;28;20203;-73
2023/06/19 07:22:36;;;;;;;6.47;5.85;;;;;;;22.06;58.44;100392.25;4981452;28;20224;-72
2023/06/19 07:25:04;;;;;;;6.63;5.93;;;;;;;22.16;57.51;100395.59;4984297;28;20203;-73
2023/06/19 07:27:31;;;;;;;8.63;6.03;;;;;;;22.29;57.21;100395.00;4989041;28;20247;-72
2023/06/19 07:29:57;;;;;;;6.38;5.63;;;;;;;22.46;56.66;100393.88;4989968;28;20203;-73
2023/06/19 07:32:23;;;;;;;7.18;6.50;;;;;;;22.67;56.65;100395.06;4986776;28;20239;-72
2023/06/19 07:34:50;;;;;;;6.57;5.88;;;;;;;22.87;55.89;100387.31;4987889;28;20214;-72
2023/06/19 07:37:18;;;;;;;6.60;5.70;;;;;;;23.07;54.96;100391.22;4988843;28;20560;-73
2023/06/19 07:39:46;;;;;;;7.03;6.28;;;;;;;23.24;54.38;100390.03;4990060;28;20219;-73
2023/06/19 07:42:13;;;;;;;6.70;6.10;;;;;;;23.43;54.19;100391.34;4980000;28;20227;-73
2023/06/19 07:44:40;;;;;;;8.27;6.53;;;;;;;23.65;54.00;100395.03;4989391;28;20211;-73
2023/06/19 07:47:07;;;;;;;6.47;5.88;;;;;;;23.87;53.66;100385.91;4983959;28;20224;-73
2023/06/19 07:49:33;;;;;;;7.65;5.60;;;;;;;24.05;52.36;100390.94;4988603;28;20206;-73
2023/06/19 07:52:00;;;;;;;7.05;6.43;;;;;;;24.23;51.55;100397.69;4987975;28;20245;-73
2023/06/19 07:54:26;;;;;;;6.38;5.40;;;;;;;24.42;51.42;100398.13;4986925;28;20209;-73
2023/06/19 07:56:54;;;;;;;6.47;5.90;;;;;;;24.61;50.83;100394.75;4985973;28;20215;-72
2023/06/19 07:59:21;;;;;;;7.50;6.75;;;;;;;24.82;50.21;100400.19;4987267;28;20212;-73
2023/06/19 08:01:47;;;;;;;7.15;6.03;;;;;;;25.02;50.32;100388.66;4986355;28;20204;-73
2023/06/19 08:04:14;;;;;;;7.05;6.10;;;;;;;25.22;49.24;100392.41;4989192;28;20207;-73
2023/06/19 08:06:40;;;;;;;6.82;6.20;;;;;;;25.42;48.52;100378.91;4987504;28;20226;-73
2023/06/19 08:09:07;;;;;;;6.82;6.07;;;;;;;25.59;47.20;100391.19;4990928;28;20199;-73
2023/06/19 08:11:33;;;;;;;7.03;6.35;;;;;;;25.76;46.23;100391.72;4986549;28;20236;-74
2023/06/19 08:14:01;;;;;;;6.88;6.28;;;;;;;25.91;46.18;100392.41;4988641;28;20222;-72
2023/06/19 08:16:27;;;;;;;6.57;5.97;;;;;;;26.07;46.12;100400.25;4987741;28;20211;-73
2023/06/19 08:18:54;;;;;;;6.70;6.07;;;;;;;26.22;45.77;100398.22;4988942;28;20215;-73
2023/06/19 08:21:21;;;;;;;6.15;5.63;;;;;;;26.39;46.03;100392.41;4985698;28;20212;-74
2023/06/19 08:23:47;;;;;;;6.40;5.80;;;;;;;26.58;45.81;100388.88;4986411;28;20290;-73
2023/06/19 08:26:14;;;;;;;6.07;5.57;;;;;;;26.75;45.38;100379.22;4989706;28;20578;-74
2023/06/19 08:28:41;;;;;;;6.80;6.10;;;;;;;26.92;44.93;100385.13;4983004;28;20204;-73
2023/06/19 08:31:09;;;;;;;6.72;5.80;;;;;;;27.10;44.78;100390.00;4989247;28;20286;-74
2023/06/19 08:33:36;;;;;;;6.18;5.65;;;;;;;27.26;44.14;100382.19;4986194;28;20231;-74
2023/06/19 08:36:02;;;;;;;9.73;6.20;;;;;;;27.41;44.19;100386.63;4982264;28;20250;-75
2023/06/19 08:38:29;;;;;;;7.22;5.72;;;;;;;27.55;43.69;100388.25;4988620;28;20195;-74
2023/06/19 08:40:56;;;;;;;5.82;5.32;;;;;;;27.68;43.81;100390.16;4988902;28;20206;-74
2023/06/19 08:43:22;;;;;;;6.53;6.00;;;;;;;27.75;43.14;100382.78;4980309;28;20591;-74
2023/06/19 08:45:59;;;;;;;6.03;5.53;;;;;;;27.84;43.22;100386.94;4986271;28;20218;-75
2023/06/19 08:48:28;;;;;;;8.13;6.15;;;;;;;27.88;43.32;100386.28;4986165;28;20210;-73
2023/06/19 08:50:56;;;;;;;6.07;5.57;;;;;;;27.98;43.34;100383.94;4987312;28;20218;-74
2023/06/19 08:53:22;;;;;;;6.95;6.40;;;;;;;28.10;43.02;100381.38;4985060;28;20235;-73
2023/06/19 08:55:50;;;;;;;6.55;5.95;;;;;;;28.21;43.03;100391.66;4985603;28;20215;-74
2023/06/19 08:58:23;;;;;;;7.18;6.47;;;;;;;28.32;42.62;100387.38;4987912;28;20227;-75
2023/06/19 09:00:50;;;;;;;6.55;6.05;;;;;;;28.41;42.86;100387.97;4982997;28;20235;-73
2023/06/19 09:03:23;;;;;;;6.18;5.68;;;;;;;28.52;42.85;100390.84;4985969;28;20219;-74
2023/06/19 09:05:51;;;;;;;5.82;5.32;;;;;;;28.68;42.52;100389.47;4982180;28;20207;-74
2023/06/19 09:08:18;;;;;;;5.82;5.43;;;;;;;28.73;42.07;100388.81;4987485;28;20596;-74
2023/06/19 09:10:55;;;;;;;6.10;5.55;;;;;;;28.67;42.87;100385.03;4987234;28;20222;-74
2023/06/19 09:13:22;;;;;;;6.32;5.82;;;;;;;28.71;43.17;100383.53;4986010;28;20834;-74
2023/06/19 09:15:50;;;;;;;6.30;5.80;;;;;;;28.82;42.97;100390.25;4988510;28;20676;-72
2023/06/19 09:18:16;;;;;;;6.70;5.45;;;;;;;28.91;43.04;100388.91;4987740;28;20208;-74
2023/06/19 09:20:44;;;;;;;5.72;5.22;;;;;;;28.99;42.65;100392.22;4986190;28;20207;-75
2023/06/19 09:23:13;;;;;;;5.63;5.13;;;;;;;29.10;42.62;100379.69;4979334;28;20289;-75
2023/06/19 09:25:47;;;;;;;5.65;5.03;;;;;;;29.18;42.41;100384.06;4985995;28;20197;-75
2023/06/19 09:28:18;;;;;;;5.25;4.75;;;;;;;29.24;41.79;100383.97;4988361;28;20758;-74
2023/06/19 09:30:52;;;;;;;4.97;4.57;;;;;;;29.28;41.54;100390.69;4985570;28;20309;-74
2023/06/19 09:33:19;;;;;;;5.63;5.13;;;;;;;29.36;42.38;100386.84;4982133;28;20687;-74
2023/06/19 09:35:45;;;;;;;5.30;4.80;;;;;;;29.50;42.45;100393.06;4988379;28;20246;-75
2023/06/19 09:38:13;;;;;;;5.30;4.90;;;;;;;29.64;41.97;100384.44;4986629;28;20210;-74
2023/06/19 09:40:40;;;;;;;5.45;5.00;;;;;;;29.73;41.65;100393.22;4984486;28;20588;-74
2023/06/19 09:43:08;;;;;;;5.90;4.68;;;;;;;29.84;41.60;100391.63;4986032;28;20222;-73
2023/06/19 09:45:35;;;;;;;5.88;5.38;;;;;;;29.93;41.31;100395.72;4982678;28;20207;-73
2023/06/19 09:48:02;;;;;;;5.63;5.13;;;;;;;30.03;41.17;100401.56;4987244;28;20207;-74
2023/06/19 09:50:29;;;;;;;5.85;5.35;;;;;;;30.09;40.76;100402.56;4987260;28;20684;-74
2023/06/19 09:52:56;;;;;;;5.00;4.60;;;;;;;30.16;40.96;100395.03;4986529;28;20229;-74
2023/06/19 09:55:28;;;;;;;5.18;4.78;;;;;;;30.24;40.95;100402.97;4984693;28;20208;-74
2023/06/19 09:57:55;;;;;;;5.10;4.60;;;;;;;30.28;41.19;100416.00;4979491;28;20745;-74
2023/06/19 10:00:26;;;;;;;5.43;4.97;;;;;;;30.29;40.69;100409.44;4983066;28;20207;-74
2023/06/19 10:02:53;;;;;;;5.90;5.40;;;;;;;30.29;40.65;100414.09;4977517;28;20223;-75
2023/06/19 10:05:30;;;;;;;5.80;5.10;;;;;;;30.25;40.62;100415.66;4984794;28;20304;-73
2023/06/19 10:07:59;;;;;;;5.20;4.72;;;;;;;30.21;40.69;100418.00;4983159;28;20242;-75
2023/06/19 10:10:28;;;;;;;5.22;4.80;;;;;;;30.16;40.85;100420.59;4984501;28;20207;-73
2023/06/19 10:12:58;;;;;;;5.45;4.95;;;;;;;30.10;41.09;100421.50;4985208;28;20231;-74
2023/06/19 10:15:26;;;;;;;5.25;4.65;;;;;;;30.15;41.05;100418.09;4985535;28;20207;-73
2023/06/19 10:17:54;;;;;;;5.68;5.18;;;;;;;30.21;41.24;100418.00;4980950;28;20220;-75
2023/06/19 10:20:27;;;;;;;5.45;5.05;;;;;;;30.21;40.90;100429.00;4986301;28;20204;-75
2023/06/19 10:22:58;;;;;;;5.95;5.32;;;;;;;30.16;41.40;100426.09;4984628;28;20679;-75
2023/06/19 10:25:28;;;;;;;6.22;5.30;;;;;;;30.12;41.96;100432.28;4984653;28;20211;-73
2023/06/19 10:27:55;;;;;;;7.18;5.40;;;;;;;30.10;41.45;100424.25;4982451;28;20211;-73
2023/06/19 10:30:21;;;;;;;5.63;5.20;;;;;;;30.09;42.24;100430.84;4987342;28;20669;-73
2023/06/19 10:32:49;;;;;;;6.32;5.70;;;;;;;30.09;41.96;100422.63;4984840;28;20227;-75
2023/06/19 10:35:17;;;;;;;5.78;5.05;;;;;;;30.12;41.92;100424.88;4982842;28;20203;-75
2023/06/19 10:37:44;;;;;;;6.75;5.68;;;;;;;30.16;42.34;100423.34;4983850;28;20756;-75
2023/06/19 10:40:12;;;;;;;5.85;5.35;;;;;;;30.16;42.10;100428.00;4980737;28;20301;-73
2023/06/19 10:42:41;;;;;;;8.45;5.45;;;;;;;30.14;41.57;100424.66;4978624;28;20219;-75
2023/06/19 10:45:10;;;;;;;5.70;5.20;;;;;;;30.15;41.66;100424.41;4978424;28;20455;-75
2023/06/19 10:47:38;;;;;;;6.95;6.15;;;;;;;30.17;41.04;100421.44;4976294;28;20231;-73
2023/06/19 10:50:06;;;;;;;6.25;5.75;;;;;;;30.16;41.57;100430.75;4982206;28;20215;-73
2023/06/19 10:52:33;;;;;;;6.65;6.05;;;;;;;30.17;41.56;100416.78;4979948;28;20329;-74
2023/06/19 10:55:00;;;;;;;5.88;5.38;;;;;;;30.19;41.77;100417.41;4976663;28;20866;-73
2023/06/19 10:57:30;;;;;;;6.20;5.70;;;;;;;30.26;41.35;100420.06;4974643;28;20215;-73
2023/06/19 10:59:59;;;;;;;6.20;5.72;;;;;;;30.32;41.56;100421.88;4980039;28;20214;-73
2023/06/19 11:02:25;;;;;;;7.00;5.57;;;;;;;30.37;41.22;100409.13;4980152;28;20258;-73
2023/06/19 11:04:53;;;;;;;5.88;5.35;;;;;;;30.42;41.07;100413.09;4988847;28;20254;-73
2023/06/19 11:07:20;;;;;;;6.60;5.90;;;;;;;30.47;41.62;100410.47;4982448;28;20289;-73
2023/06/19 11:09:46;;;;;;;5.80;5.22;;;;;;;30.46;41.51;100414.28;4981246;28;20730;-71
2023/06/19 11:12:13;;;;;;;5.57;4.97;;;;;;;30.41;41.62;100414.16;4984819;28;20747;-74
2023/06/19 11:14:41;;;;;;;4.88;4.47;;;;;;;30.36;41.72;100425.84;4985142;28;20211;-74
2023/06/19 11:17:09;;;;;;;5.65;5.13;;;;;;;30.31;41.37;100421.03;4984993;28;20215;-73
2023/06/19 11:19:38;;;;;;;4.97;4.40;;;;;;;30.31;41.76;100420.19;4988132;28;20628;-70
2023/06/19 11:22:05;;;;;;;5.13;4.72;;;;;;;30.31;42.24;100418.28;4984930;28;20805;-74
2023/06/19 11:24:31;;;;;;;4.40;4.05;;;;;;;30.33;41.56;100427.13;4981759;28;20214;-73